createdAt,value
2023-05-17T00:00:12.889Z,4.40
2023-05-17T00:02:41.138Z,4.70
2023-05-17T00:05:11.666Z,4.60
2023-05-17T00:07:41.253Z,4.20
2023-05-17T00:10:10.343Z,3.60
2023-05-17T00:12:38.691Z,4.13
2023-05-17T00:15:08.078Z,4.17
2023-05-17T00:17:38.248Z,4.77
2023-05-17T00:20:07.900Z,4.17
2023-05-17T00:22:36.535Z,4.30
2023-05-17T00:25:07.222Z,4.07
2023-05-17T00:27:35.544Z,4.23
2023-05-17T00:30:03.709Z,4.60
2023-05-17T00:32:31.977Z,4.90
2023-05-17T00:35:00.436Z,4.30
2023-05-17T00:37:28.948Z,4.30
2023-05-17T00:39:57.108Z,3.57
2023-05-17T00:42:26.634Z,4.00
2023-05-17T00:44:54.864Z,3.23
2023-05-17T00:47:23.182Z,3.13
2023-05-17T00:49:52.852Z,2.87
2023-05-17T00:52:21.168Z,3.40
2023-05-17T00:54:49.858Z,2.97
2023-05-17T00:57:18.386Z,2.90
2023-05-17T00:59:48.777Z,3.27
2023-05-17T01:02:17.954Z,2.90
2023-05-17T01:04:46.278Z,2.67
2023-05-17T01:07:14.625Z,2.67
2023-05-17T01:09:43.233Z,2.40
2023-05-17T01:12:20.041Z,2.30
2023-05-17T01:14:58.326Z,2.20
2023-05-17T01:17:37.130Z,1.80
2023-05-17T01:20:15.837Z,2.60
2023-05-17T01:22:50.212Z,2.00
2023-05-17T01:25:42.312Z,2.83
2023-05-17T01:28:13.530Z,2.20
2023-05-17T01:30:44.025Z,2.00
2023-05-17T01:33:13.382Z,2.10
2023-05-17T01:35:42.951Z,1.70
2023-05-17T01:38:11.768Z,2.13
2023-05-17T01:40:47.051Z,1.83
2023-05-17T01:43:23.104Z,2.20
2023-05-17T01:46:10.099Z,2.33
2023-05-17T01:48:44.213Z,2.00
2023-05-17T01:51:18.412Z,2.53
2023-05-17T01:53:49.730Z,2.20
2023-05-17T01:56:23.228Z,1.80
2023-05-17T01:58:55.056Z,2.20
2023-05-17T02:01:28.748Z,2.00
2023-05-17T02:03:57.100Z,2.03
2023-05-17T02:06:25.998Z,2.33
2023-05-17T02:08:54.683Z,3.00
2023-05-17T02:11:22.978Z,2.93
2023-05-17T02:13:55.639Z,3.80
2023-05-17T02:16:24.141Z,3.40
2023-05-17T02:18:52.599Z,3.37
2023-05-17T02:21:21.153Z,3.50
2023-05-17T02:23:49.462Z,2.90
2023-05-17T02:26:20.486Z,4.07
2023-05-17T02:28:48.877Z,3.20
2023-05-17T02:31:18.492Z,4.20
2023-05-17T02:33:47.152Z,3.90
2023-05-17T02:36:15.413Z,3.80
2023-05-17T02:38:43.925Z,3.50
2023-05-17T02:41:14.031Z,3.87
2023-05-17T02:43:42.372Z,3.60
2023-05-17T02:46:10.857Z,3.50
2023-05-17T02:48:40.800Z,4.10
2023-05-17T02:51:09.399Z,3.60
2023-05-17T02:53:37.909Z,3.40
2023-05-17T02:56:06.926Z,3.60
2023-05-17T02:58:35.706Z,3.00
2023-05-17T03:01:04.089Z,3.23
2023-05-17T03:03:32.886Z,3.07
2023-05-17T03:06:04.929Z,3.23
2023-05-17T03:08:33.982Z,3.20
2023-05-17T03:11:03.953Z,3.10
2023-05-17T03:13:32.676Z,3.10
2023-05-17T03:16:01.673Z,3.23
2023-05-17T03:18:29.969Z,3.20
2023-05-17T03:20:59.110Z,2.80
2023-05-17T03:23:28.654Z,3.07
2023-05-17T03:26:04.372Z,3.63
2023-05-17T03:28:37.567Z,3.10
2023-05-17T03:31:06.584Z,3.00
2023-05-17T03:33:36.147Z,3.13
2023-05-17T03:36:05.245Z,2.63
2023-05-17T03:38:36.112Z,3.13
2023-05-17T03:41:05.120Z,3.10
2023-05-17T03:43:33.624Z,3.20
2023-05-17T03:46:03.043Z,2.80
2023-05-17T03:48:33.120Z,2.90
2023-05-17T03:51:03.833Z,2.73
2023-05-17T03:53:32.154Z,2.97
2023-05-17T03:56:02.498Z,2.90
2023-05-17T03:58:30.915Z,2.77
2023-05-17T04:00:59.632Z,3.03
2023-05-17T04:03:28.343Z,3.07
2023-05-17T04:06:02.193Z,2.70
2023-05-17T04:08:30.682Z,2.63
2023-05-17T04:10:59.059Z,2.50
2023-05-17T04:13:28.772Z,2.83
2023-05-17T04:15:57.168Z,2.67
2023-05-17T04:18:25.620Z,2.90
2023-05-17T04:20:55.922Z,2.80
2023-05-17T04:23:25.019Z,2.70
2023-05-17T04:25:53.167Z,3.10
2023-05-17T04:28:22.817Z,2.53
2023-05-17T04:30:53.746Z,2.73
2023-05-17T04:33:24.344Z,2.87
2023-05-17T04:35:56.807Z,2.73
2023-05-17T04:38:26.968Z,2.93
2023-05-17T04:41:01.875Z,2.83
2023-05-17T04:43:30.174Z,2.73
2023-05-17T04:46:00.660Z,2.70
2023-05-17T04:48:32.844Z,2.30
2023-05-17T04:51:02.447Z,2.90
2023-05-17T04:53:31.064Z,2.73
2023-05-17T04:56:00.876Z,4.60
2023-05-17T04:58:28.928Z,4.43
2023-05-17T05:01:01.776Z,3.37
2023-05-17T05:03:31.107Z,3.83
2023-05-17T05:05:59.874Z,15.10
2023-05-17T05:08:29.858Z,8.07
2023-05-17T05:10:58.926Z,7.07
2023-05-17T05:13:27.417Z,12.10
2023-05-17T05:15:56.446Z,11.90
2023-05-17T05:18:27.397Z,9.93
2023-05-17T05:20:56.454Z,6.80
2023-05-17T05:23:26.092Z,5.33
2023-05-17T05:25:54.555Z,8.20
2023-05-17T05:28:22.993Z,11.77
2023-05-17T05:30:51.342Z,11.33
2023-05-17T05:33:21.293Z,4.80
2023-05-17T05:35:51.616Z,9.00
2023-05-17T05:38:22.645Z,3.70
2023-05-17T05:40:52.367Z,3.47
2023-05-17T05:43:20.676Z,3.13
2023-05-17T05:45:49.064Z,2.35
2023-05-17T05:48:17.561Z,2.37
2023-05-17T05:50:46.000Z,3.00
2023-05-17T05:53:19.484Z,3.37
2023-05-17T05:55:56.548Z,2.57
2023-05-17T05:58:24.968Z,1.90
2023-05-17T06:00:53.788Z,2.57
2023-05-17T06:03:22.177Z,2.00
2023-05-17T06:05:50.711Z,1.93
2023-05-17T06:08:20.493Z,1.93
2023-05-17T06:10:48.995Z,1.80
2023-05-17T06:13:17.297Z,1.90
2023-05-17T06:15:45.612Z,1.93
2023-05-17T06:18:13.802Z,1.87
2023-05-17T06:20:41.916Z,1.77
2023-05-17T06:23:10.658Z,1.40
2023-05-17T06:25:41.394Z,2.33
2023-05-17T06:28:09.794Z,1.63
2023-05-17T06:30:38.694Z,1.50
2023-05-17T06:33:07.380Z,1.70
2023-05-17T06:35:51.490Z,2.03
2023-05-17T06:38:23.555Z,1.37
2023-05-17T06:40:54.944Z,2.03
2023-05-17T06:43:23.428Z,1.93
2023-05-17T06:45:51.873Z,1.77
2023-05-17T06:48:20.303Z,1.67
2023-05-17T06:50:48.655Z,1.60
2023-05-17T06:53:17.090Z,2.47
2023-05-17T06:55:45.643Z,1.80
2023-05-17T06:58:15.517Z,2.47
2023-05-17T07:00:44.013Z,1.80
2023-05-17T07:03:12.454Z,1.40
2023-05-17T07:05:41.137Z,1.63
2023-05-17T07:08:09.500Z,1.30
2023-05-17T07:10:37.765Z,2.03
2023-05-17T07:13:06.015Z,2.37
2023-05-17T07:15:36.574Z,1.90
2023-05-17T07:18:05.043Z,1.60
2023-05-17T07:20:33.710Z,1.30
2023-05-17T07:23:02.036Z,1.40
2023-05-17T07:25:30.559Z,1.33
2023-05-17T07:27:58.954Z,1.43
2023-05-17T07:30:27.404Z,1.47
2023-05-17T07:32:57.397Z,1.27
2023-05-17T07:35:25.799Z,1.67
2023-05-17T07:37:54.074Z,1.53
2023-05-17T07:40:22.568Z,2.03
2023-05-17T07:42:50.918Z,2.10
2023-05-17T07:45:19.613Z,1.53
2023-05-17T07:47:48.074Z,1.50
2023-05-17T07:50:18.930Z,1.57
2023-05-17T07:52:47.372Z,1.37
2023-05-17T07:55:25.770Z,1.40
2023-05-17T07:57:54.058Z,1.43
2023-05-17T08:00:23.969Z,1.30
2023-05-17T08:02:52.410Z,1.60
2023-05-17T08:05:22.315Z,1.40
2023-05-17T08:07:50.529Z,1.60
2023-05-17T08:10:19.029Z,1.43
2023-05-17T08:12:47.250Z,1.33
2023-05-17T08:15:15.742Z,1.40
2023-05-17T08:17:44.215Z,1.33
2023-05-17T08:20:13.058Z,1.50
2023-05-17T08:22:43.027Z,1.60
2023-05-17T08:25:11.848Z,1.80
2023-05-17T08:27:40.318Z,2.00
2023-05-17T08:30:14.736Z,1.73
2023-05-17T08:32:45.044Z,1.70
2023-05-17T08:35:13.615Z,1.60
2023-05-17T08:37:43.254Z,1.60
2023-05-17T08:40:12.045Z,1.83
2023-05-17T08:42:40.683Z,1.70
2023-05-17T08:45:10.373Z,1.43
2023-05-17T08:47:39.974Z,1.93
2023-05-17T08:50:08.900Z,1.80
2023-05-17T08:52:38.786Z,1.90
2023-05-17T08:55:10.142Z,1.90
2023-05-17T08:57:40.527Z,2.03
2023-05-17T09:00:12.527Z,1.97
2023-05-17T09:02:42.325Z,1.90
2023-05-17T09:05:13.738Z,2.30
2023-05-17T09:07:42.409Z,2.70
2023-05-17T09:10:13.635Z,1.70
2023-05-17T09:12:42.452Z,1.57
2023-05-17T09:15:16.022Z,1.90
2023-05-17T09:17:44.799Z,1.93
2023-05-17T09:20:13.361Z,1.73
2023-05-17T09:22:42.444Z,1.77
2023-05-17T09:25:12.557Z,1.97
2023-05-17T09:27:41.515Z,1.70
2023-05-17T09:30:12.740Z,2.00
2023-05-17T09:32:46.324Z,1.50
2023-05-17T09:35:15.133Z,1.77
2023-05-17T09:37:45.312Z,2.40
2023-05-17T09:40:25.656Z,2.00
2023-05-17T09:42:53.963Z,1.77
2023-05-17T09:45:25.119Z,1.87
2023-05-17T09:47:53.890Z,2.00
2023-05-17T09:50:25.364Z,2.00
2023-05-17T09:52:54.519Z,2.67
2023-05-17T09:55:28.716Z,1.67
2023-05-17T09:58:04.498Z,2.13
2023-05-17T10:00:32.862Z,2.10
2023-05-17T10:03:02.442Z,2.20
2023-05-17T10:05:31.380Z,1.70
2023-05-17T10:08:00.400Z,2.10
2023-05-17T10:10:31.258Z,1.90
2023-05-17T10:13:00.689Z,1.80
2023-05-17T10:15:29.858Z,2.33
2023-05-17T10:17:59.049Z,1.90
2023-05-17T10:20:28.760Z,2.10
2023-05-17T10:22:58.757Z,1.97
2023-05-17T10:25:27.835Z,1.73
2023-05-17T10:27:58.439Z,2.23
2023-05-17T10:30:27.772Z,2.80
2023-05-17T10:32:56.862Z,2.30
2023-05-17T10:35:26.320Z,2.10
2023-05-17T10:37:54.835Z,2.20
2023-05-17T10:40:23.844Z,2.10
2023-05-17T10:42:53.976Z,2.70
2023-05-17T10:45:25.683Z,2.17
2023-05-17T10:47:55.199Z,2.30
2023-05-17T10:50:24.666Z,2.70
2023-05-17T10:52:55.913Z,2.33
2023-05-17T10:55:26.181Z,2.20
2023-05-17T10:58:20.707Z,2.27
2023-05-17T11:00:54.694Z,2.40
2023-05-17T11:03:28.743Z,2.40
2023-05-17T11:06:25.349Z,2.30
2023-05-17T11:09:15.360Z,2.50
2023-05-17T11:12:04.977Z,2.57
2023-05-17T11:14:53.249Z,2.80
2023-05-17T11:17:26.114Z,2.43
2023-05-17T11:20:02.976Z,3.03
2023-05-17T11:22:38.290Z,2.60
2023-05-17T11:25:13.264Z,2.97
2023-05-17T11:27:46.752Z,2.80
2023-05-17T11:30:20.731Z,2.60
2023-05-17T11:32:51.486Z,2.70
2023-05-17T11:35:20.582Z,4.60
2023-05-17T11:37:52.621Z,2.13
2023-05-17T11:40:28.629Z,2.77
2023-05-17T11:43:14.008Z,2.67
2023-05-17T11:45:52.883Z,2.63
2023-05-17T11:48:24.560Z,2.87
2023-05-17T11:50:54.239Z,2.97
2023-05-17T11:53:22.946Z,3.23
2023-05-17T11:55:52.751Z,3.07
2023-05-17T11:58:25.082Z,3.10
2023-05-17T12:00:55.182Z,4.03
2023-05-17T12:03:26.526Z,3.20
2023-05-17T12:06:04.149Z,3.17
2023-05-17T12:08:34.250Z,2.70
2023-05-17T12:11:03.324Z,2.70
2023-05-17T12:13:32.915Z,2.97
2023-05-17T12:16:03.710Z,2.83
2023-05-17T12:18:41.143Z,3.30
2023-05-17T12:21:10.812Z,2.60
2023-05-17T12:23:41.226Z,3.40
2023-05-17T12:26:11.797Z,3.00
2023-05-17T12:28:42.150Z,3.13
2023-05-17T12:31:14.347Z,2.87
2023-05-17T12:33:47.940Z,2.87
2023-05-17T12:36:16.667Z,3.27
2023-05-17T12:38:47.337Z,2.60
2023-05-17T12:41:17.240Z,2.80
2023-05-17T12:43:47.097Z,3.37
2023-05-17T12:46:17.897Z,3.23
2023-05-17T12:48:48.338Z,3.23
2023-05-17T12:51:18.325Z,3.10
2023-05-17T12:53:51.525Z,3.13
2023-05-17T12:56:21.698Z,3.00
2023-05-17T12:59:05.846Z,3.20
2023-05-17T13:01:35.453Z,3.03
2023-05-17T13:04:05.901Z,2.97
2023-05-17T13:06:48.169Z,2.80
2023-05-17T13:09:18.406Z,3.27
2023-05-17T13:11:52.014Z,3.10
2023-05-17T13:14:36.043Z,3.13
2023-05-17T13:17:04.428Z,2.90
2023-05-17T13:19:35.884Z,3.00
2023-05-17T13:22:04.683Z,2.87
2023-05-17T13:24:35.080Z,2.63
2023-05-17T13:27:05.198Z,14.73
2023-05-17T13:29:40.338Z,3.80
2023-05-17T13:32:10.352Z,3.63
2023-05-17T13:34:40.168Z,5.20
2023-05-17T13:37:12.179Z,4.63
2023-05-17T13:39:41.663Z,4.97
2023-05-17T13:42:10.750Z,3.27
2023-05-17T13:44:39.500Z,3.27
2023-05-17T13:47:08.287Z,3.40
2023-05-17T13:49:37.420Z,3.93
2023-05-17T13:52:08.936Z,3.47
2023-05-17T13:54:38.002Z,3.90
2023-05-17T13:57:07.249Z,4.90
2023-05-17T13:59:35.541Z,4.53
2023-05-17T14:02:04.699Z,4.90
2023-05-17T14:04:33.150Z,4.80
2023-05-17T14:07:01.803Z,3.83
2023-05-17T14:09:33.857Z,3.37
2023-05-17T14:12:02.300Z,3.97
2023-05-17T14:14:32.034Z,3.93
2023-05-17T14:17:01.471Z,4.60
2023-05-17T14:19:30.188Z,3.60
2023-05-17T14:21:58.787Z,4.20
2023-05-17T14:24:27.098Z,4.33
2023-05-17T14:26:57.746Z,4.17
2023-05-17T14:29:26.375Z,4.60
2023-05-17T14:31:54.750Z,3.57
2023-05-17T14:34:23.442Z,3.70
2023-05-17T14:36:52.057Z,3.20
2023-05-17T14:39:20.362Z,3.37
2023-05-17T14:41:48.637Z,4.00
2023-05-17T14:44:18.347Z,3.70
2023-05-17T14:46:46.667Z,4.23
2023-05-17T14:49:15.046Z,4.10
2023-05-17T14:51:43.476Z,3.87
2023-05-17T14:54:13.533Z,4.70
2023-05-17T14:56:42.480Z,8.00
2023-05-17T14:59:10.623Z,5.97
2023-05-17T15:01:40.331Z,6.27
2023-05-17T15:04:09.570Z,5.60
2023-05-17T15:06:38.778Z,6.30
2023-05-17T15:09:07.859Z,6.10
2023-05-17T15:11:36.186Z,7.00
2023-05-17T15:14:04.787Z,5.47
2023-05-17T15:16:33.294Z,6.63
2023-05-17T15:19:03.127Z,16.87
2023-05-17T15:21:31.824Z,9.60
2023-05-17T15:24:00.098Z,7.43
2023-05-17T15:26:29.307Z,6.60
2023-05-17T15:28:58.058Z,6.83
2023-05-17T15:31:28.467Z,6.50
2023-05-17T15:33:57.679Z,4.93
2023-05-17T15:36:27.237Z,4.93
2023-05-17T15:38:55.589Z,5.63
2023-05-17T15:41:29.795Z,5.13
2023-05-17T15:43:58.904Z,7.30
2023-05-17T15:46:27.334Z,6.10
2023-05-17T15:48:56.568Z,5.67
2023-05-17T15:51:26.354Z,5.60
2023-05-17T15:53:54.662Z,5.67
2023-05-17T15:56:23.219Z,5.13
2023-05-17T15:58:51.702Z,5.80
2023-05-17T16:01:20.089Z,6.53
2023-05-17T16:03:48.460Z,6.50
2023-05-17T16:06:17.199Z,6.17
2023-05-17T16:08:46.855Z,7.33
2023-05-17T16:11:15.013Z,6.20
2023-05-17T16:13:43.702Z,6.70
2023-05-17T16:16:13.429Z,6.33
2023-05-17T16:18:41.686Z,6.07
2023-05-17T16:21:10.301Z,6.20
2023-05-17T16:23:38.373Z,7.03
2023-05-17T16:26:09.423Z,6.13
2023-05-17T16:28:37.854Z,6.80
2023-05-17T16:31:06.637Z,5.57
2023-05-17T16:33:35.468Z,6.70
2023-05-17T16:36:04.708Z,7.10
2023-05-17T16:38:32.836Z,6.60
2023-05-17T16:41:03.265Z,6.40
2023-05-17T16:43:32.940Z,6.33
2023-05-17T16:46:01.328Z,6.80
2023-05-17T16:48:29.539Z,5.97
2023-05-17T16:50:59.388Z,6.53
2023-05-17T16:53:28.321Z,6.53
2023-05-17T16:55:56.631Z,6.57
2023-05-17T16:58:26.000Z,6.00
2023-05-17T17:00:55.743Z,5.53
2023-05-17T17:03:24.029Z,5.70
2023-05-17T17:05:52.270Z,6.00
2023-05-17T17:08:20.372Z,6.47
2023-05-17T17:10:48.491Z,6.23
2023-05-17T17:13:17.405Z,6.23
2023-05-17T17:15:46.676Z,7.50
2023-05-17T17:18:17.670Z,6.60
2023-05-17T17:20:46.346Z,6.73
2023-05-17T17:23:14.447Z,6.30
2023-05-17T17:25:42.618Z,6.50
2023-05-17T17:28:10.686Z,6.30
2023-05-17T17:30:39.345Z,6.23
2023-05-17T17:33:07.407Z,6.60
2023-05-17T17:35:36.821Z,6.80
2023-05-17T17:38:04.914Z,6.00
2023-05-17T17:40:33.246Z,6.63
2023-05-17T17:43:01.323Z,6.03
2023-05-17T17:45:29.500Z,6.30
2023-05-17T17:47:57.662Z,5.97
2023-05-17T17:50:25.887Z,6.27
2023-05-17T17:52:55.382Z,5.77
2023-05-17T17:55:24.024Z,6.20
2023-05-17T17:57:52.333Z,5.90
2023-05-17T18:00:21.470Z,6.53
2023-05-17T18:02:49.666Z,6.00
2023-05-17T18:05:17.951Z,5.70
2023-05-17T18:07:46.057Z,6.30
2023-05-17T18:10:15.668Z,6.30
2023-05-17T18:12:43.790Z,5.63
2023-05-17T18:15:12.909Z,5.80
2023-05-17T18:17:41.066Z,5.80
2023-05-17T18:20:09.799Z,6.00
2023-05-17T18:22:38.012Z,5.97
2023-05-17T18:25:06.861Z,6.27
2023-05-17T18:27:36.856Z,5.60
2023-05-17T18:30:05.503Z,5.57
2023-05-17T18:32:34.120Z,5.30
2023-05-17T18:35:03.894Z,6.10
2023-05-17T18:37:33.013Z,6.50
2023-05-17T18:40:02.559Z,6.13
2023-05-17T18:42:31.027Z,5.63
2023-05-17T18:45:01.260Z,6.33
2023-05-17T18:47:29.621Z,6.37
2023-05-17T18:49:58.075Z,6.17
2023-05-17T18:52:26.518Z,5.70
2023-05-17T18:54:54.808Z,6.40
2023-05-17T18:57:23.019Z,6.10
2023-05-17T18:59:51.632Z,6.63
2023-05-17T19:02:21.618Z,6.40
2023-05-17T19:04:50.359Z,6.30
2023-05-17T19:07:18.773Z,5.77
2023-05-17T19:09:46.976Z,5.80
2023-05-17T19:12:15.307Z,5.80
2023-05-17T19:14:43.743Z,6.37
2023-05-17T19:17:11.992Z,6.47
2023-05-17T19:19:41.800Z,5.70
2023-05-17T19:22:11.095Z,5.73
2023-05-17T19:24:39.463Z,6.47
2023-05-17T19:27:07.888Z,6.13
2023-05-17T19:29:36.382Z,6.60
2023-05-17T19:32:06.124Z,5.90
2023-05-17T19:34:34.832Z,6.30
2023-05-17T19:37:04.535Z,6.27
2023-05-17T19:39:33.622Z,6.40
2023-05-17T19:42:02.958Z,6.17
2023-05-17T19:44:31.683Z,6.40
2023-05-17T19:46:59.963Z,6.83
2023-05-17T19:49:28.344Z,6.10
2023-05-17T19:52:00.717Z,6.60
2023-05-17T19:54:31.834Z,6.17
2023-05-17T19:57:00.460Z,6.80
2023-05-17T19:59:28.802Z,6.70
2023-05-17T20:01:57.300Z,6.50
2023-05-17T20:04:26.707Z,6.50
2023-05-17T20:06:55.292Z,5.50
2023-05-17T20:09:26.918Z,5.67
2023-05-17T20:11:57.163Z,6.07
2023-05-17T20:14:25.847Z,6.53
2023-05-17T20:16:55.808Z,6.03
2023-05-17T20:19:24.109Z,6.50
2023-05-17T20:21:52.582Z,6.60
2023-05-17T20:24:23.528Z,6.20
2023-05-17T20:26:51.795Z,6.73
2023-05-17T20:29:21.624Z,7.23
2023-05-17T20:31:50.299Z,7.20
2023-05-17T20:34:18.659Z,7.53
2023-05-17T20:36:46.968Z,7.03
2023-05-17T20:39:15.472Z,6.77
2023-05-17T20:41:43.688Z,6.93
2023-05-17T20:44:13.600Z,6.90
2023-05-17T20:46:43.404Z,8.23
2023-05-17T20:49:12.634Z,9.13
2023-05-17T20:51:41.233Z,9.00
2023-05-17T20:54:09.848Z,8.00
2023-05-17T20:56:39.643Z,7.47
2023-05-17T20:59:08.905Z,7.83
2023-05-17T21:01:37.687Z,7.87
2023-05-17T21:04:07.512Z,8.10
2023-05-17T21:06:35.867Z,8.60
2023-05-17T21:09:04.297Z,7.40
2023-05-17T21:11:32.633Z,8.43
2023-05-17T21:14:01.156Z,8.20
2023-05-17T21:16:29.490Z,7.60
2023-05-17T21:18:58.057Z,7.60
2023-05-17T21:21:28.580Z,7.73
2023-05-17T21:23:56.945Z,9.20
2023-05-17T21:28:56.544Z,8.50
2023-05-17T21:31:25.984Z,8.10
2023-05-17T21:33:54.192Z,7.40
2023-05-17T21:36:22.698Z,8.13
2023-05-17T21:38:52.417Z,7.83
2023-05-17T21:41:21.621Z,7.87
2023-05-17T21:43:50.493Z,7.80
2023-05-17T21:46:18.790Z,7.67
2023-05-17T21:48:47.049Z,7.57
2023-05-17T21:51:15.461Z,8.07
2023-05-17T21:53:43.672Z,8.47
2023-05-17T21:56:13.528Z,8.00
2023-05-17T21:58:42.103Z,8.47
2023-05-17T22:01:10.812Z,8.47
2023-05-17T22:03:39.454Z,7.83
2023-05-17T22:06:08.252Z,8.77
2023-05-17T22:08:36.472Z,7.50
2023-05-17T22:11:06.233Z,8.87
2023-05-17T22:13:36.087Z,7.60
2023-05-17T22:16:04.641Z,7.53
2023-05-17T22:18:33.177Z,7.30
2023-05-17T22:21:01.637Z,7.70
2023-05-17T22:23:30.242Z,8.23
2023-05-17T22:26:00.521Z,8.33
2023-05-17T22:28:29.482Z,7.70
2023-05-17T22:30:59.282Z,7.93
2023-05-17T22:33:29.823Z,7.70
2023-05-17T22:35:58.850Z,8.27
2023-05-17T22:38:27.517Z,7.03
2023-05-17T22:40:55.880Z,7.90
2023-05-17T22:43:25.960Z,8.20
2023-05-17T22:45:54.553Z,8.40
2023-05-17T22:48:24.533Z,9.03
2023-05-17T22:50:54.674Z,9.17
2023-05-17T22:53:23.057Z,9.20
2023-05-17T22:55:51.674Z,8.60
2023-05-17T22:58:20.707Z,8.80
2023-05-17T23:00:51.088Z,7.80
2023-05-17T23:03:19.956Z,7.83
2023-05-17T23:05:51.741Z,9.00
2023-05-17T23:08:22.470Z,8.40
2023-05-17T23:10:51.837Z,8.87
2023-05-17T23:13:20.238Z,8.70
2023-05-17T23:15:48.710Z,8.40
2023-05-17T23:18:17.353Z,8.47
2023-05-17T23:20:46.415Z,8.63
2023-05-17T23:23:16.622Z,8.70
2023-05-17T23:25:48.795Z,9.00
2023-05-17T23:28:18.728Z,8.47
2023-05-17T23:30:49.063Z,9.60
2023-05-17T23:33:18.932Z,8.40
2023-05-17T23:35:47.339Z,8.33
2023-05-17T23:38:17.037Z,9.60
2023-05-17T23:40:45.473Z,8.60
2023-05-17T23:43:14.797Z,9.97
2023-05-17T23:45:43.236Z,9.23
2023-05-17T23:48:11.763Z,8.80
2023-05-17T23:50:40.851Z,9.23
2023-05-17T23:53:09.952Z,8.77
2023-05-17T23:55:39.785Z,9.50
2023-05-17T23:58:08.137Z,8.60
